sensor_id;sensor_type;location;lat;lon;timestamp;temperature;humidity
45096;DHT22;30858;51.108;8.068;2023-06-01T00:01:57;11.70;99.90
45096;DHT22;30858;51.108;8.068;2023-06-01T00:04:23;11.60;99.90
45096;DHT22;30858;51.108;8.068;2023-06-01T00:06:49;11.50;99.90
45096;DHT22;30858;51.108;8.068;2023-06-01T00:09:14;11.50;99.90
45096;DHT22;30858;51.108;8.068;2023-06-01T00:11:40;11.40;99.90
45096;DHT22;30858;51.108;8.068;2023-06-01T00:14:06;11.40;99.90
45096;DHT22;30858;51.108;8.068;2023-06-01T00:16:31;11.40;99.90
45096;DHT22;30858;51.108;8.068;2023-06-01T00:18:57;11.30;99.90
45096;DHT22;30858;51.108;8.068;2023-06-01T00:21:27;11.30;99.90
45096;DHT22;30858;51.108;8.068;2023-06-01T00:23:53;11.30;99.90
45096;DHT22;30858;51.108;8.068;2023-06-01T00:26:18;11.20;99.90
45096;DHT22;30858;51.108;8.068;2023-06-01T00:28:44;11.10;99.90
45096;DHT22;30858;51.108;8.068;2023-06-01T00:31:09;11.10;99.90
45096;DHT22;30858;51.108;8.068;2023-06-01T00:33:35;11.10;99.90
45096;DHT22;30858;51.108;8.068;2023-06-01T00:36:00;11.00;99.90
45096;DHT22;30858;51.108;8.068;2023-06-01T00:38:26;11.00;99.90
45096;DHT22;30858;51.108;8.068;2023-06-01T00:40:52;10.90;99.90
45096;DHT22;30858;51.108;8.068;2023-06-01T00:43:18;10.90;99.90
45096;DHT22;30858;51.108;8.068;2023-06-01T00:45:44;10.80;99.90
45096;DHT22;30858;51.108;8.068;2023-06-01T00:48:11;10.90;99.90
45096;DHT22;30858;51.108;8.068;2023-06-01T00:50:36;10.70;99.90
45096;DHT22;30858;51.108;8.068;2023-06-01T00:53:03;10.70;99.90
45096;DHT22;30858;51.108;8.068;2023-06-01T00:55:30;10.60;99.90
45096;DHT22;30858;51.108;8.068;2023-06-01T00:57:56;10.50;99.90
45096;DHT22;30858;51.108;8.068;2023-06-01T01:00:24;10.50;99.90
45096;DHT22;30858;51.108;8.068;2023-06-01T01:02:51;10.40;99.90
45096;DHT22;30858;51.108;8.068;2023-06-01T01:05:17;10.30;99.90
45096;DHT22;30858;51.108;8.068;2023-06-01T01:13:27;10.30;99.90
45096;DHT22;30858;51.108;8.068;2023-06-01T01:21:32;10.20;99.90
45096;DHT22;30858;51.108;8.068;2023-06-01T01:27:15;10.10;99.90
45096;DHT22;30858;51.108;8.068;2023-06-01T01:29:43;10.10;99.90
45096;DHT22;30858;51.108;8.068;2023-06-01T01:32:09;10.00;99.90
45096;DHT22;30858;51.108;8.068;2023-06-01T01:34:37;10.00;99.90
45096;DHT22;30858;51.108;8.068;2023-06-01T01:37:02;9.90;99.90
45096;DHT22;30858;51.108;8.068;2023-06-01T01:39:28;9.90;99.90
45096;DHT22;30858;51.108;8.068;2023-06-01T01:41:54;9.90;99.90
45096;DHT22;30858;51.108;8.068;2023-06-01T01:44:20;9.90;99.90
45096;DHT22;30858;51.108;8.068;2023-06-01T01:46:58;9.80;99.90
45096;DHT22;30858;51.108;8.068;2023-06-01T01:49:44;9.80;99.90
45096;DHT22;30858;51.108;8.068;2023-06-01T01:52:18;9.70;99.90
45096;DHT22;30858;51.108;8.068;2023-06-01T01:54:46;9.70;99.90
45096;DHT22;30858;51.108;8.068;2023-06-01T01:57:13;9.70;99.90
45096;DHT22;30858;51.108;8.068;2023-06-01T01:59:40;9.60;99.90
45096;DHT22;30858;51.108;8.068;2023-06-01T02:02:07;9.60;99.90
45096;DHT22;30858;51.108;8.068;2023-06-01T02:04:32;9.60;99.90
45096;DHT22;30858;51.108;8.068;2023-06-01T02:06:58;9.60;99.90
45096;DHT22;30858;51.108;8.068;2023-06-01T02:09:23;9.50;99.90
45096;DHT22;30858;51.108;8.068;2023-06-01T02:11:49;9.40;99.90
45096;DHT22;30858;51.108;8.068;2023-06-01T02:14:14;9.40;99.90
45096;DHT22;30858;51.108;8.068;2023-06-01T02:16:40;9.40;99.90
45096;DHT22;30858;51.108;8.068;2023-06-01T02:19:06;9.30;99.90
45096;DHT22;30858;51.108;8.068;2023-06-01T02:21:36;9.30;99.90
45096;DHT22;30858;51.108;8.068;2023-06-01T02:24:01;9.20;99.90
45096;DHT22;30858;51.108;8.068;2023-06-01T02:26:31;9.10;99.90
45096;DHT22;30858;51.108;8.068;2023-06-01T02:28:56;9.20;99.90
45096;DHT22;30858;51.108;8.068;2023-06-01T02:31:22;9.10;99.90
45096;DHT22;30858;51.108;8.068;2023-06-01T02:33:48;9.10;99.90
45096;DHT22;30858;51.108;8.068;2023-06-01T02:36:14;9.00;99.90
45096;DHT22;30858;51.108;8.068;2023-06-01T02:38:42;9.00;99.90
45096;DHT22;30858;51.108;8.068;2023-06-01T02:41:07;9.00;99.90
45096;DHT22;30858;51.108;8.068;2023-06-01T02:43:36;9.00;99.90
45096;DHT22;30858;51.108;8.068;2023-06-01T02:46:01;8.90;99.90
45096;DHT22;30858;51.108;8.068;2023-06-01T02:48:28;8.90;99.90
45096;DHT22;30858;51.108;8.068;2023-06-01T02:50:54;8.80;99.90
45096;DHT22;30858;51.108;8.068;2023-06-01T02:53:20;8.80;99.90
45096;DHT22;30858;51.108;8.068;2023-06-01T02:55:46;8.70;99.90
45096;DHT22;30858;51.108;8.068;2023-06-01T02:58:11;8.70;99.90
45096;DHT22;30858;51.108;8.068;2023-06-01T03:00:44;8.70;99.90
45096;DHT22;30858;51.108;8.068;2023-06-01T03:03:10;8.70;99.90
45096;DHT22;30858;51.108;8.068;2023-06-01T03:05:37;8.60;99.90
45096;DHT22;30858;51.108;8.068;2023-06-01T03:08:03;8.60;99.90
45096;DHT22;30858;51.108;8.068;2023-06-01T03:10:29;8.50;99.90
45096;DHT22;30858;51.108;8.068;2023-06-01T03:12:55;8.50;99.90
45096;DHT22;30858;51.108;8.068;2023-06-01T03:15:20;8.50;99.90
45096;DHT22;30858;51.108;8.068;2023-06-01T03:17:46;8.60;99.90
45096;DHT22;30858;51.108;8.068;2023-06-01T03:20:12;8.60;99.90
45096;DHT22;30858;51.108;8.068;2023-06-01T03:22:42;8.50;99.90
45096;DHT22;30858;51.108;8.068;2023-06-01T03:25:08;8.50;99.90
45096;DHT22;30858;51.108;8.068;2023-06-01T03:27:33;8.50;99.90
45096;DHT22;30858;51.108;8.068;2023-06-01T03:29:59;8.50;99.90
45096;DHT22;30858;51.108;8.068;2023-06-01T03:32:26;8.50;99.90
45096;DHT22;30858;51.108;8.068;2023-06-01T03:34:52;8.40;99.90
45096;DHT22;30858;51.108;8.068;2023-06-01T03:37:17;8.40;99.90
45096;DHT22;30858;51.108;8.068;2023-06-01T03:39:43;8.40;99.90
45096;DHT22;30858;51.108;8.068;2023-06-01T03:42:09;8.30;99.90
45096;DHT22;30858;51.108;8.068;2023-06-01T03:44:34;8.30;99.90
45096;DHT22;30858;51.108;8.068;2023-06-01T03:47:00;8.30;99.90
45096;DHT22;30858;51.108;8.068;2023-06-01T03:49:26;8.30;99.90
45096;DHT22;30858;51.108;8.068;2023-06-01T03:51:51;8.30;99.90
45096;DHT22;30858;51.108;8.068;2023-06-01T03:54:17;8.30;99.90
45096;DHT22;30858;51.108;8.068;2023-06-01T03:56:43;8.30;99.90
45096;DHT22;30858;51.108;8.068;2023-06-01T03:59:08;8.30;99.90
45096;DHT22;30858;51.108;8.068;2023-06-01T04:01:36;8.30;99.90
45096;DHT22;30858;51.108;8.068;2023-06-01T04:04:03;8.30;99.90
45096;DHT22;30858;51.108;8.068;2023-06-01T04:06:31;8.30;99.90
45096;DHT22;30858;51.108;8.068;2023-06-01T04:09:02;8.30;99.90
45096;DHT22;30858;51.108;8.068;2023-06-01T04:11:32;8.30;99.90
45096;DHT22;30858;51.108;8.068;2023-06-01T04:13:58;8.40;99.90
45096;DHT22;30858;51.108;8.068;2023-06-01T04:16:23;8.30;99.90
45096;DHT22;30858;51.108;8.068;2023-06-01T04:18:49;8.30;99.90
45096;DHT22;30858;51.108;8.068;2023-06-01T04:21:15;8.30;99.90
45096;DHT22;30858;51.108;8.068;2023-06-01T04:23:41;8.30;99.90
45096;DHT22;30858;51.108;8.068;2023-06-01T04:26:08;8.30;99.90
45096;DHT22;30858;51.108;8.068;2023-06-01T04:28:33;8.40;99.90
45096;DHT22;30858;51.108;8.068;2023-06-01T04:30:59;8.30;99.90
45096;DHT22;30858;51.108;8.068;2023-06-01T04:33:25;8.30;99.90
45096;DHT22;30858;51.108;8.068;2023-06-01T04:35:53;8.40;99.90
45096;DHT22;30858;51.108;8.068;2023-06-01T04:38:21;8.40;99.90
45096;DHT22;30858;51.108;8.068;2023-06-01T04:40:50;8.40;99.90
45096;DHT22;30858;51.108;8.068;2023-06-01T04:43:18;8.50;99.90
45096;DHT22;30858;51.108;8.068;2023-06-01T04:45:45;8.60;99.90
45096;DHT22;30858;51.108;8.068;2023-06-01T04:48:11;8.60;99.90
45096;DHT22;30858;51.108;8.068;2023-06-01T04:50:36;8.70;99.90
45096;DHT22;30858;51.108;8.068;2023-06-01T04:53:02;8.80;99.90
45096;DHT22;30858;51.108;8.068;2023-06-01T04:55:28;8.80;99.90
45096;DHT22;30858;51.108;8.068;2023-06-01T04:57:53;8.90;99.90
45096;DHT22;30858;51.108;8.068;2023-06-01T05:00:20;9.00;99.90
45096;DHT22;30858;51.108;8.068;2023-06-01T05:02:46;9.10;99.90
45096;DHT22;30858;51.108;8.068;2023-06-01T05:05:13;9.10;99.90
45096;DHT22;30858;51.108;8.068;2023-06-01T05:07:40;9.20;99.90
45096;DHT22;30858;51.108;8.068;2023-06-01T05:10:08;9.30;99.90
45096;DHT22;30858;51.108;8.068;2023-06-01T05:12:34;9.50;99.90
45096;DHT22;30858;51.108;8.068;2023-06-01T05:15:01;9.70;99.90
45096;DHT22;30858;51.108;8.068;2023-06-01T05:17:27;9.80;99.90
45096;DHT22;30858;51.108;8.068;2023-06-01T05:19:53;10.00;99.90
45096;DHT22;30858;51.108;8.068;2023-06-01T05:22:18;10.10;99.90
45096;DHT22;30858;51.108;8.068;2023-06-01T05:24:44;10.30;99.90
45096;DHT22;30858;51.108;8.068;2023-06-01T05:27:10;10.40;99.90
45096;DHT22;30858;51.108;8.068;2023-06-01T05:29:35;10.60;99.90
45096;DHT22;30858;51.108;8.068;2023-06-01T05:32:01;10.70;99.90
45096;DHT22;30858;51.108;8.068;2023-06-01T05:34:26;10.80;99.90
45096;DHT22;30858;51.108;8.068;2023-06-01T05:36:52;10.80;99.90
45096;DHT22;30858;51.108;8.068;2023-06-01T05:39:17;10.70;99.90
45096;DHT22;30858;51.108;8.068;2023-06-01T05:41:43;10.80;99.90
45096;DHT22;30858;51.108;8.068;2023-06-01T05:44:09;11.10;99.90
45096;DHT22;30858;51.108;8.068;2023-06-01T05:46:34;11.30;99.90
45096;DHT22;30858;51.108;8.068;2023-06-01T05:49:00;11.50;99.90
45096;DHT22;30858;51.108;8.068;2023-06-01T05:51:26;11.80;99.90
45096;DHT22;30858;51.108;8.068;2023-06-01T05:53:51;12.00;99.90
45096;DHT22;30858;51.108;8.068;2023-06-01T05:56:17;12.10;99.90
45096;DHT22;30858;51.108;8.068;2023-06-01T05:58:43;12.40;99.90
45096;DHT22;30858;51.108;8.068;2023-06-01T06:01:09;12.60;99.90
45096;DHT22;30858;51.108;8.068;2023-06-01T06:03:35;12.80;99.90
45096;DHT22;30858;51.108;8.068;2023-06-01T06:06:01;13.00;99.90
45096;DHT22;30858;51.108;8.068;2023-06-01T06:08:27;13.00;99.90
45096;DHT22;30858;51.108;8.068;2023-06-01T06:10:53;13.10;99.90
45096;DHT22;30858;51.108;8.068;2023-06-01T06:13:18;13.40;99.90
45096;DHT22;30858;51.108;8.068;2023-06-01T06:15:44;13.50;99.90
45096;DHT22;30858;51.108;8.068;2023-06-01T06:18:10;13.70;99.90
45096;DHT22;30858;51.108;8.068;2023-06-01T06:20:35;13.80;99.90
45096;DHT22;30858;51.108;8.068;2023-06-01T06:23:01;14.20;99.90
45096;DHT22;30858;51.108;8.068;2023-06-01T06:25:26;14.30;99.90
45096;DHT22;30858;51.108;8.068;2023-06-01T06:30:18;14.80;99.90
45096;DHT22;30858;51.108;8.068;2023-06-01T06:32:44;15.10;99.90
45096;DHT22;30858;51.108;8.068;2023-06-01T06:35:10;15.10;99.90
45096;DHT22;30858;51.108;8.068;2023-06-01T06:37:41;15.30;99.90
45096;DHT22;30858;51.108;8.068;2023-06-01T06:40:09;15.50;99.90
45096;DHT22;30858;51.108;8.068;2023-06-01T06:42:34;15.50;99.90
45096;DHT22;30858;51.108;8.068;2023-06-01T06:45:01;15.50;99.90
45096;DHT22;30858;51.108;8.068;2023-06-01T06:47:26;15.70;99.90
45096;DHT22;30858;51.108;8.068;2023-06-01T06:49:53;15.80;99.90
45096;DHT22;30858;51.108;8.068;2023-06-01T06:52:18;16.00;99.90
45096;DHT22;30858;51.108;8.068;2023-06-01T06:54:44;16.00;99.90
45096;DHT22;30858;51.108;8.068;2023-06-01T06:57:09;16.10;99.90
45096;DHT22;30858;51.108;8.068;2023-06-01T06:59:36;16.20;99.90
45096;DHT22;30858;51.108;8.068;2023-06-01T07:02:02;16.20;99.90
45096;DHT22;30858;51.108;8.068;2023-06-01T07:04:29;16.30;99.90
45096;DHT22;30858;51.108;8.068;2023-06-01T07:06:55;16.40;99.90
45096;DHT22;30858;51.108;8.068;2023-06-01T07:09:20;16.20;99.90
45096;DHT22;30858;51.108;8.068;2023-06-01T07:11:46;16.40;99.90
45096;DHT22;30858;51.108;8.068;2023-06-01T07:14:13;16.50;99.90
45096;DHT22;30858;51.108;8.068;2023-06-01T07:16:39;16.80;99.90
45096;DHT22;30858;51.108;8.068;2023-06-01T07:19:06;17.10;99.90
45096;DHT22;30858;51.108;8.068;2023-06-01T07:21:32;17.10;99.90
45096;DHT22;30858;51.108;8.068;2023-06-01T07:23:58;17.30;99.90
45096;DHT22;30858;51.108;8.068;2023-06-01T07:26:23;17.20;99.90
45096;DHT22;30858;51.108;8.068;2023-06-01T07:28:54;17.20;99.90
45096;DHT22;30858;51.108;8.068;2023-06-01T07:31:20;17.30;99.90
45096;DHT22;30858;51.108;8.068;2023-06-01T07:33:46;17.40;99.90
45096;DHT22;30858;51.108;8.068;2023-06-01T07:36:12;17.50;99.90
45096;DHT22;30858;51.108;8.068;2023-06-01T07:38:38;17.50;99.90
45096;DHT22;30858;51.108;8.068;2023-06-01T07:41:03;17.60;99.90
45096;DHT22;30858;51.108;8.068;2023-06-01T07:43:29;17.50;99.90
45096;DHT22;30858;51.108;8.068;2023-06-01T07:45:54;17.70;99.90
45096;DHT22;30858;51.108;8.068;2023-06-01T07:48:20;18.00;99.90
45096;DHT22;30858;51.108;8.068;2023-06-01T07:50:46;18.00;99.90
45096;DHT22;30858;51.108;8.068;2023-06-01T07:53:12;17.90;99.90
45096;DHT22;30858;51.108;8.068;2023-06-01T07:55:37;17.80;99.90
45096;DHT22;30858;51.108;8.068;2023-06-01T07:58:03;17.80;99.90
45096;DHT22;30858;51.108;8.068;2023-06-01T08:00:29;18.00;99.90
45096;DHT22;30858;51.108;8.068;2023-06-01T08:02:55;18.10;99.90
45096;DHT22;30858;51.108;8.068;2023-06-01T08:05:22;18.00;99.90
45096;DHT22;30858;51.108;8.068;2023-06-01T08:07:48;18.00;99.90
45096;DHT22;30858;51.108;8.068;2023-06-01T08:10:14;18.00;99.90
45096;DHT22;30858;51.108;8.068;2023-06-01T08:12:40;18.00;99.90
45096;DHT22;30858;51.108;8.068;2023-06-01T08:15:08;18.00;99.90
45096;DHT22;30858;51.108;8.068;2023-06-01T08:17:34;17.90;99.90
45096;DHT22;30858;51.108;8.068;2023-06-01T08:19:59;17.90;99.90
45096;DHT22;30858;51.108;8.068;2023-06-01T08:22:25;17.80;99.90
45096;DHT22;30858;51.108;8.068;2023-06-01T08:24:51;17.90;99.90
45096;DHT22;30858;51.108;8.068;2023-06-01T08:27:19;18.00;99.90
45096;DHT22;30858;51.108;8.068;2023-06-01T08:29:46;18.20;99.90
45096;DHT22;30858;51.108;8.068;2023-06-01T08:32:13;18.40;99.90
45096;DHT22;30858;51.108;8.068;2023-06-01T08:34:38;18.30;99.90
45096;DHT22;30858;51.108;8.068;2023-06-01T08:37:04;18.50;99.90
45096;DHT22;30858;51.108;8.068;2023-06-01T08:39:30;18.70;99.90
45096;DHT22;30858;51.108;8.068;2023-06-01T08:44:27;18.60;99.90
45096;DHT22;30858;51.108;8.068;2023-06-01T08:46:54;18.80;99.90
45096;DHT22;30858;51.108;8.068;2023-06-01T08:49:21;18.70;99.90
45096;DHT22;30858;51.108;8.068;2023-06-01T08:51:51;18.70;99.90
45096;DHT22;30858;51.108;8.068;2023-06-01T08:54:17;19.10;99.90
45096;DHT22;30858;51.108;8.068;2023-06-01T08:56:43;19.40;99.90
45096;DHT22;30858;51.108;8.068;2023-06-01T08:59:12;19.70;99.90
45096;DHT22;30858;51.108;8.068;2023-06-01T09:01:39;19.90;99.90
45096;DHT22;30858;51.108;8.068;2023-06-01T09:04:04;19.70;99.90
45096;DHT22;30858;51.108;8.068;2023-06-01T09:06:30;19.90;99.90
45096;DHT22;30858;51.108;8.068;2023-06-01T09:08:56;20.00;99.90
45096;DHT22;30858;51.108;8.068;2023-06-01T09:11:22;20.10;99.90
45096;DHT22;30858;51.108;8.068;2023-06-01T09:13:47;20.20;99.90
45096;DHT22;30858;51.108;8.068;2023-06-01T09:16:13;20.10;99.90
45096;DHT22;30858;51.108;8.068;2023-06-01T09:18:54;20.30;99.90
45096;DHT22;30858;51.108;8.068;2023-06-01T09:21:20;20.60;99.90
45096;DHT22;30858;51.108;8.068;2023-06-01T09:23:46;20.40;99.90
45096;DHT22;30858;51.108;8.068;2023-06-01T09:26:14;20.40;99.90
45096;DHT22;30858;51.108;8.068;2023-06-01T09:31:43;20.70;99.90
45096;DHT22;30858;51.108;8.068;2023-06-01T09:34:13;20.60;99.90
45096;DHT22;30858;51.108;8.068;2023-06-01T09:36:53;20.70;99.90
45096;DHT22;30858;51.108;8.068;2023-06-01T09:39:21;20.90;99.90
45096;DHT22;30858;51.108;8.068;2023-06-01T09:41:55;20.90;99.90
45096;DHT22;30858;51.108;8.068;2023-06-01T09:44:26;20.80;99.90
45096;DHT22;30858;51.108;8.068;2023-06-01T09:47:01;20.80;99.90
45096;DHT22;30858;51.108;8.068;2023-06-01T09:49:32;20.90;99.90
45096;DHT22;30858;51.108;8.068;2023-06-01T09:54:30;21.20;99.90
45096;DHT22;30858;51.108;8.068;2023-06-01T09:56:57;21.20;99.90
45096;DHT22;30858;51.108;8.068;2023-06-01T09:59:24;20.80;99.90
45096;DHT22;30858;51.108;8.068;2023-06-01T10:01:52;21.20;99.90
45096;DHT22;30858;51.108;8.068;2023-06-01T10:04:26;21.30;99.90
45096;DHT22;30858;51.108;8.068;2023-06-01T10:06:53;21.60;99.90
45096;DHT22;30858;51.108;8.068;2023-06-01T10:09:21;21.70;99.90
45096;DHT22;30858;51.108;8.068;2023-06-01T10:11:47;21.60;99.90
45096;DHT22;30858;51.108;8.068;2023-06-01T10:14:17;21.40;99.90
45096;DHT22;30858;51.108;8.068;2023-06-01T10:16:43;21.70;99.90
45096;DHT22;30858;51.108;8.068;2023-06-01T10:19:10;21.70;99.90
45096;DHT22;30858;51.108;8.068;2023-06-01T10:21:36;21.90;99.90
45096;DHT22;30858;51.108;8.068;2023-06-01T10:24:03;21.80;99.90
45096;DHT22;30858;51.108;8.068;2023-06-01T10:26:30;22.00;99.90
45096;DHT22;30858;51.108;8.068;2023-06-01T10:28:59;21.80;99.90
45096;DHT22;30858;51.108;8.068;2023-06-01T10:31:36;22.00;99.90
45096;DHT22;30858;51.108;8.068;2023-06-01T10:34:02;22.00;99.90
45096;DHT22;30858;51.108;8.068;2023-06-01T10:39:25;22.00;99.90
45096;DHT22;30858;51.108;8.068;2023-06-01T10:41:55;22.00;99.90
45096;DHT22;30858;51.108;8.068;2023-06-01T10:52:36;22.70;99.90
45096;DHT22;30858;51.108;8.068;2023-06-01T10:57:39;22.50;99.90
45096;DHT22;30858;51.108;8.068;2023-06-01T11:08:03;22.80;99.90
45096;DHT22;30858;51.108;8.068;2023-06-01T11:18:57;22.70;99.90
45096;DHT22;30858;51.108;8.068;2023-06-01T11:21:40;22.60;99.90
45096;DHT22;30858;51.108;8.068;2023-06-01T11:24:11;22.90;99.90
45096;DHT22;30858;51.108;8.068;2023-06-01T11:26:39;23.20;99.60
45096;DHT22;30858;51.108;8.068;2023-06-01T11:29:08;23.30;99.60
45096;DHT22;30858;51.108;8.068;2023-06-01T11:31:36;23.20;98.80
45096;DHT22;30858;51.108;8.068;2023-06-01T11:34:02;23.10;99.70
45096;DHT22;30858;51.108;8.068;2023-06-01T11:36:29;23.20;98.10
45096;DHT22;30858;51.108;8.068;2023-06-01T11:41:21;23.20;97.00
45096;DHT22;30858;51.108;8.068;2023-06-01T11:43:56;23.30;96.80
45096;DHT22;30858;51.108;8.068;2023-06-01T11:46:22;23.30;95.50
45096;DHT22;30858;51.108;8.068;2023-06-01T11:49:01;23.30;95.60
45096;DHT22;30858;51.108;8.068;2023-06-01T11:51:37;23.10;95.10
45096;DHT22;30858;51.108;8.068;2023-06-01T11:54:04;23.10;95.00
45096;DHT22;30858;51.108;8.068;2023-06-01T11:56:35;23.30;94.50
45096;DHT22;30858;51.108;8.068;2023-06-01T11:59:03;23.30;93.50
45096;DHT22;30858;51.108;8.068;2023-06-01T12:01:46;23.30;93.60
45096;DHT22;30858;51.108;8.068;2023-06-01T12:04:20;23.60;93.30
45096;DHT22;30858;51.108;8.068;2023-06-01T12:06:46;23.60;91.90
45096;DHT22;30858;51.108;8.068;2023-06-01T12:09:13;23.10;93.10
45096;DHT22;30858;51.108;8.068;2023-06-01T12:11:40;23.20;93.20
45096;DHT22;30858;51.108;8.068;2023-06-01T12:14:08;23.40;92.90
45096;DHT22;30858;51.108;8.068;2023-06-01T12:16:59;23.50;92.00
45096;DHT22;30858;51.108;8.068;2023-06-01T12:19:30;23.30;92.50
45096;DHT22;30858;51.108;8.068;2023-06-01T12:21:57;23.30;92.80
45096;DHT22;30858;51.108;8.068;2023-06-01T12:24:28;23.50;92.90
45096;DHT22;30858;51.108;8.068;2023-06-01T12:26:57;23.20;92.60
45096;DHT22;30858;51.108;8.068;2023-06-01T12:29:43;23.00;93.50
45096;DHT22;30858;51.108;8.068;2023-06-01T12:32:11;23.10;94.50
45096;DHT22;30858;51.108;8.068;2023-06-01T12:34:37;22.90;94.90
45096;DHT22;30858;51.108;8.068;2023-06-01T12:37:16;22.90;95.40
45096;DHT22;30858;51.108;8.068;2023-06-01T12:39:42;23.20;95.10
45096;DHT22;30858;51.108;8.068;2023-06-01T12:42:09;23.30;94.90
45096;DHT22;30858;51.108;8.068;2023-06-01T12:44:35;23.40;94.60
45096;DHT22;30858;51.108;8.068;2023-06-01T12:47:02;22.80;95.10
45096;DHT22;30858;51.108;8.068;2023-06-01T12:49:29;22.70;95.70
45096;DHT22;30858;51.108;8.068;2023-06-01T12:51:54;23.00;95.40
45096;DHT22;30858;51.108;8.068;2023-06-01T12:54:20;23.30;94.10
45096;DHT22;30858;51.108;8.068;2023-06-01T12:56:50;23.90;93.90
45096;DHT22;30858;51.108;8.068;2023-06-01T12:59:16;24.40;92.00
45096;DHT22;30858;51.108;8.068;2023-06-01T13:01:42;24.50;91.20
45096;DHT22;30858;51.108;8.068;2023-06-01T13:04:08;24.30;89.10
45096;DHT22;30858;51.108;8.068;2023-06-01T13:06:34;24.50;90.20
45096;DHT22;30858;51.108;8.068;2023-06-01T13:09:03;24.10;90.30
45096;DHT22;30858;51.108;8.068;2023-06-01T13:11:30;23.60;88.90
45096;DHT22;30858;51.108;8.068;2023-06-01T13:13:55;23.90;89.10
45096;DHT22;30858;51.108;8.068;2023-06-01T13:16:22;24.10;85.90
45096;DHT22;30858;51.108;8.068;2023-06-01T13:18:48;24.10;85.50
45096;DHT22;30858;51.108;8.068;2023-06-01T13:21:15;24.00;85.00
45096;DHT22;30858;51.108;8.068;2023-06-01T13:23:41;24.00;88.70
45096;DHT22;30858;51.108;8.068;2023-06-01T13:26:07;23.90;91.00
45096;DHT22;30858;51.108;8.068;2023-06-01T13:28:33;24.10;90.00
45096;DHT22;30858;51.108;8.068;2023-06-01T13:30:59;24.00;88.80
45096;DHT22;30858;51.108;8.068;2023-06-01T13:33:24;23.70;89.60
45096;DHT22;30858;51.108;8.068;2023-06-01T13:35:50;24.20;89.30
45096;DHT22;30858;51.108;8.068;2023-06-01T13:38:16;24.10;89.10
45096;DHT22;30858;51.108;8.068;2023-06-01T13:40:41;24.50;86.10
45096;DHT22;30858;51.108;8.068;2023-06-01T13:43:07;24.50;84.30
45096;DHT22;30858;51.108;8.068;2023-06-01T13:45:32;24.20;85.30
45096;DHT22;30858;51.108;8.068;2023-06-01T13:47:58;24.30;85.20
45096;DHT22;30858;51.108;8.068;2023-06-01T13:50:24;24.50;83.60
45096;DHT22;30858;51.108;8.068;2023-06-01T13:52:49;24.30;84.00
45096;DHT22;30858;51.108;8.068;2023-06-01T13:55:15;24.30;82.50
45096;DHT22;30858;51.108;8.068;2023-06-01T13:57:41;24.50;84.10
45096;DHT22;30858;51.108;8.068;2023-06-01T14:00:08;24.30;83.60
45096;DHT22;30858;51.108;8.068;2023-06-01T14:02:36;24.00;85.20
45096;DHT22;30858;51.108;8.068;2023-06-01T14:05:01;24.10;86.20
45096;DHT22;30858;51.108;8.068;2023-06-01T14:07:27;24.30;89.70
45096;DHT22;30858;51.108;8.068;2023-06-01T14:09:52;24.20;85.20
45096;DHT22;30858;51.108;8.068;2023-06-01T14:12:19;23.80;85.30
45096;DHT22;30858;51.108;8.068;2023-06-01T14:14:44;23.40;90.60
45096;DHT22;30858;51.108;8.068;2023-06-01T14:17:10;23.60;90.90
45096;DHT22;30858;51.108;8.068;2023-06-01T14:19:36;23.60;90.50
45096;DHT22;30858;51.108;8.068;2023-06-01T14:22:01;23.70;90.00
45096;DHT22;30858;51.108;8.068;2023-06-01T14:24:27;22.90;88.30
45096;DHT22;30858;51.108;8.068;2023-06-01T14:26:53;23.50;89.50
45096;DHT22;30858;51.108;8.068;2023-06-01T14:29:18;23.90;90.70
45096;DHT22;30858;51.108;8.068;2023-06-01T14:31:44;23.90;91.30
45096;DHT22;30858;51.108;8.068;2023-06-01T14:34:09;24.10;90.20
45096;DHT22;30858;51.108;8.068;2023-06-01T14:36:35;23.90;90.40
45096;DHT22;30858;51.108;8.068;2023-06-01T14:39:01;23.70;90.50
45096;DHT22;30858;51.108;8.068;2023-06-01T14:41:28;23.80;90.80
45096;DHT22;30858;51.108;8.068;2023-06-01T14:43:53;23.90;90.10
45096;DHT22;30858;51.108;8.068;2023-06-01T14:46:19;23.50;91.40
45096;DHT22;30858;51.108;8.068;2023-06-01T14:48:46;23.90;88.50
45096;DHT22;30858;51.108;8.068;2023-06-01T14:51:11;23.80;87.30
45096;DHT22;30858;51.108;8.068;2023-06-01T14:53:38;23.80;87.50
45096;DHT22;30858;51.108;8.068;2023-06-01T14:56:05;23.40;90.20
45096;DHT22;30858;51.108;8.068;2023-06-01T14:58:31;23.80;87.90
45096;DHT22;30858;51.108;8.068;2023-06-01T15:03:23;23.70;85.50
45096;DHT22;30858;51.108;8.068;2023-06-01T15:05:49;23.70;84.80
45096;DHT22;30858;51.108;8.068;2023-06-01T15:08:15;23.50;87.60
45096;DHT22;30858;51.108;8.068;2023-06-01T15:10:41;23.40;90.10
45096;DHT22;30858;51.108;8.068;2023-06-01T15:13:06;23.90;87.00
45096;DHT22;30858;51.108;8.068;2023-06-01T15:15:32;23.40;89.80
45096;DHT22;30858;51.108;8.068;2023-06-01T15:17:57;23.70;88.60
45096;DHT22;30858;51.108;8.068;2023-06-01T15:20:23;24.10;86.50
45096;DHT22;30858;51.108;8.068;2023-06-01T15:22:48;23.90;85.90
45096;DHT22;30858;51.108;8.068;2023-06-01T15:25:14;22.80;90.50
45096;DHT22;30858;51.108;8.068;2023-06-01T15:27:39;23.10;90.60
45096;DHT22;30858;51.108;8.068;2023-06-01T15:30:05;23.40;85.90
45096;DHT22;30858;51.108;8.068;2023-06-01T15:32:31;23.50;84.70
45096;DHT22;30858;51.108;8.068;2023-06-01T15:34:57;23.30;85.90
45096;DHT22;30858;51.108;8.068;2023-06-01T15:37:22;23.10;86.50
45096;DHT22;30858;51.108;8.068;2023-06-01T15:39:48;23.00;87.10
45096;DHT22;30858;51.108;8.068;2023-06-01T15:42:14;22.70;89.10
45096;DHT22;30858;51.108;8.068;2023-06-01T15:44:43;22.70;87.30
45096;DHT22;30858;51.108;8.068;2023-06-01T15:47:10;22.90;87.00
45096;DHT22;30858;51.108;8.068;2023-06-01T15:49:36;22.70;88.20
45096;DHT22;30858;51.108;8.068;2023-06-01T15:52:02;22.50;90.10
45096;DHT22;30858;51.108;8.068;2023-06-01T15:54:33;22.40;90.00
45096;DHT22;30858;51.108;8.068;2023-06-01T15:57:00;21.90;89.60
45096;DHT22;30858;51.108;8.068;2023-06-01T15:59:26;22.10;90.10
45096;DHT22;30858;51.108;8.068;2023-06-01T16:01:51;21.70;91.30
45096;DHT22;30858;51.108;8.068;2023-06-01T16:04:17;21.80;90.60
45096;DHT22;30858;51.108;8.068;2023-06-01T16:06:42;20.90;92.80
45096;DHT22;30858;51.108;8.068;2023-06-01T16:09:08;21.50;92.80
45096;DHT22;30858;51.108;8.068;2023-06-01T16:11:34;21.70;92.80
45096;DHT22;30858;51.108;8.068;2023-06-01T16:13:59;21.60;93.40
45096;DHT22;30858;51.108;8.068;2023-06-01T16:16:25;21.40;93.70
45096;DHT22;30858;51.108;8.068;2023-06-01T16:18:51;21.70;94.40
45096;DHT22;30858;51.108;8.068;2023-06-01T16:21:16;21.90;92.60
45096;DHT22;30858;51.108;8.068;2023-06-01T16:23:42;21.50;93.00
45096;DHT22;30858;51.108;8.068;2023-06-01T16:26:08;21.20;95.00
45096;DHT22;30858;51.108;8.068;2023-06-01T16:28:34;21.10;95.30
45096;DHT22;30858;51.108;8.068;2023-06-01T16:31:01;21.30;96.30
45096;DHT22;30858;51.108;8.068;2023-06-01T16:33:26;21.20;97.40